Time;durP1;ratioP1;P1;durP2;ratioP2;P2;SDS_P1;SDS_P2;PMS_P1;PMS_P2;Temp;Humidity;BMP_temperature;BMP_pressure;BME280_temperature;BME280_humidity;BME280_pressure;Samples;Min_cycle;Max_cycle;Signal;HPM_P1;HPM_P2
2022/04/14 00:01:33;;;;;;;6.90;3.80;;;11.20;99.90;;;;;;4899390;29;20694;-75
2022/04/14 00:04:00;;;;;;;7.23;4.17;;;11.10;99.90;;;;;;4899182;29;20653;-78
2022/04/14 00:06:28;;;;;;;5.17;3.50;;;11.10;99.90;;;;;;4899042;29;20214;-75
2022/04/14 00:08:55;;;;;;;6.10;3.10;;;11.00;99.90;;;;;;4899404;29;20236;-77
2022/04/14 00:11:22;;;;;;;4.83;3.17;;;11.00;99.90;;;;;;4899529;29;20214;-80
2022/04/14 00:13:49;;;;;;;5.60;3.23;;;11.00;99.90;;;;;;4899081;29;20213;-80
2022/04/14 00:16:16;;;;;;;6.10;3.57;;;11.10;99.90;;;;;;4899709;29;20214;-81
2022/04/14 00:18:42;;;;;;;7.47;4.03;;;11.20;99.90;;;;;;4899454;29;20230;-81
2022/04/14 00:21:09;;;;;;;6.77;3.80;;;11.20;99.90;;;;;;4899401;29;20675;-81
2022/04/14 00:23:38;;;;;;;6.77;3.97;;;11.20;99.90;;;;;;4899633;29;20244;-80
2022/04/14 00:26:04;;;;;;;5.77;3.67;;;11.20;99.90;;;;;;4896754;29;20380;-81
2022/04/14 00:28:31;;;;;;;7.50;4.20;;;11.10;99.90;;;;;;4880337;29;20238;-80
2022/04/14 00:30:59;;;;;;;6.50;3.87;;;11.10;99.90;;;;;;4880477;29;20215;-81
2022/04/14 00:33:26;;;;;;;7.90;3.93;;;11.10;99.90;;;;;;4880332;29;20207;-80
2022/04/14 00:35:53;;;;;;;9.67;4.50;;;11.10;99.90;;;;;;4880226;29;20217;-81
2022/04/14 00:38:20;;;;;;;5.57;3.53;;;11.20;99.90;;;;;;4879822;29;20259;-80
2022/04/14 00:40:49;;;;;;;6.90;3.70;;;11.20;99.90;;;;;;4880433;29;20298;-79
2022/04/14 00:43:16;;;;;;;6.93;3.60;;;11.30;99.90;;;;;;4880279;29;20239;-81
2022/04/14 00:45:44;;;;;;;7.63;3.47;;;11.20;99.90;;;;;;4880079;29;20217;-79
2022/04/14 00:48:13;;;;;;;6.13;3.63;;;11.20;99.90;;;;;;4880438;29;20241;-79
2022/04/14 00:50:40;;;;;;;7.30;3.93;;;11.10;99.90;;;;;;4879807;29;20263;-74
2022/04/14 00:53:07;;;;;;;7.57;3.70;;;11.10;99.90;;;;;;4880092;29;20221;-77
2022/04/14 00:55:34;;;;;;;5.77;3.33;;;11.10;99.90;;;;;;4880124;29;20217;-80
2022/04/14 00:58:02;;;;;;;6.27;3.80;;;11.10;99.90;;;;;;4879793;29;20238;-79
2022/04/14 01:00:29;;;;;;;6.73;3.90;;;11.10;99.90;;;;;;4879174;29;20290;-78
2022/04/14 01:02:56;;;;;;;8.93;4.00;;;11.20;99.90;;;;;;4879774;29;20215;-77
2022/04/14 01:05:25;;;;;;;9.30;4.40;;;11.20;99.90;;;;;;4879741;29;20217;-81
2022/04/14 01:07:53;;;;;;;6.30;3.93;;;11.20;99.90;;;;;;4879656;29;20233;-79
2022/04/14 01:10:20;;;;;;;8.47;4.30;;;11.30;99.90;;;;;;4879691;29;20298;-81
2022/04/14 01:12:47;;;;;;;7.60;4.07;;;11.30;99.90;;;;;;4879869;29;20244;-81
2022/04/14 01:15:16;;;;;;;8.83;3.90;;;11.40;99.90;;;;;;4880274;29;20211;-79
2022/04/14 01:17:43;;;;;;;6.53;3.87;;;11.40;99.90;;;;;;4879292;29;20224;-79
2022/04/14 01:20:13;;;;;;;7.13;4.10;;;11.30;99.90;;;;;;4879747;29;20633;-79
2022/04/14 01:22:46;;;;;;;6.53;4.03;;;11.30;99.90;;;;;;4879433;29;20237;-81
2022/04/14 01:25:14;;;;;;;7.40;4.27;;;11.20;99.90;;;;;;4879511;29;20238;-80
2022/04/14 01:27:41;;;;;;;7.43;4.20;;;11.20;99.90;;;;;;4879218;29;20265;-81
2022/04/14 01:30:09;;;;;;;5.83;3.57;;;11.20;99.90;;;;;;4879661;29;20219;-81
2022/04/14 01:32:36;;;;;;;7.00;4.37;;;11.20;99.90;;;;;;4879431;29;20538;-71
2022/04/14 01:35:03;;;;;;;6.50;4.23;;;11.20;99.90;;;;;;4879499;29;20215;-80
2022/04/14 01:37:30;;;;;;;7.40;4.27;;;11.10;99.90;;;;;;4879100;29;20237;-70
2022/04/14 01:39:57;;;;;;;6.73;4.43;;;11.20;99.90;;;;;;4879301;29;20206;-71
2022/04/14 01:42:25;;;;;;;7.00;4.20;;;11.20;99.90;;;;;;4881875;29;23298;-80
2022/04/14 01:44:52;;;;;;;8.30;3.93;;;11.10;99.90;;;;;;4883848;29;20237;-80
2022/04/14 01:47:18;;;;;;;9.83;4.83;;;11.10;99.90;;;;;;4897287;29;20222;-77
2022/04/14 01:49:45;;;;;;;5.57;3.97;;;11.10;99.90;;;;;;4898030;29;20305;-81
2022/04/14 01:52:12;;;;;;;8.37;4.40;;;11.00;99.90;;;;;;4897798;29;20249;-77
2022/04/14 01:54:39;;;;;;;8.10;4.27;;;11.00;99.90;;;;;;4897457;29;20206;-81
2022/04/14 01:57:06;;;;;;;10.80;5.07;;;11.10;99.90;;;;;;4898110;29;20297;-81
2022/04/14 01:59:35;;;;;;;9.53;5.50;;;11.10;99.90;;;;;;4897631;29;20220;-80
2022/04/14 02:02:03;;;;;;;8.60;4.57;;;11.10;99.90;;;;;;4879947;29;20221;-81
2022/04/14 02:04:30;;;;;;;8.63;4.60;;;11.10;99.90;;;;;;4879124;29;20334;-78
2022/04/14 02:06:57;;;;;;;6.57;3.50;;;11.20;99.90;;;;;;4879127;29;20301;-69
2022/04/14 02:09:23;;;;;;;7.27;4.00;;;11.20;99.90;;;;;;4879300;29;20660;-79
2022/04/14 02:11:50;;;;;;;6.57;3.73;;;11.00;99.90;;;;;;4879163;29;20225;-80
2022/04/14 02:14:17;;;;;;;8.63;4.60;;;11.00;99.90;;;;;;4878880;29;20214;-79
2022/04/14 02:16:45;;;;;;;8.23;4.70;;;11.00;99.90;;;;;;4879197;29;20293;-80
2022/04/14 02:19:12;;;;;;;7.90;4.50;;;11.00;99.90;;;;;;4878659;29;20231;-79
2022/04/14 02:21:39;;;;;;;7.37;4.50;;;11.00;99.90;;;;;;4878831;29;20215;-74
2022/04/14 02:24:06;;;;;;;7.77;4.40;;;11.00;99.90;;;;;;4878873;29;20245;-79
2022/04/14 02:26:33;;;;;;;8.03;3.87;;;11.00;99.90;;;;;;4878563;29;20210;-80
2022/04/14 02:29:00;;;;;;;8.83;4.20;;;11.10;99.90;;;;;;4878878;29;20239;-82
2022/04/14 02:31:27;;;;;;;6.37;3.90;;;11.10;99.90;;;;;;4879085;29;20211;-78
2022/04/14 02:33:55;;;;;;;8.47;4.53;;;11.10;99.90;;;;;;4878700;29;20213;-80
2022/04/14 02:36:23;;;;;;;9.13;4.83;;;11.00;99.90;;;;;;4878976;29;20217;-80
2022/04/14 02:38:50;;;;;;;6.83;4.33;;;11.00;99.90;;;;;;4878511;29;20262;-77
2022/04/14 02:41:17;;;;;;;7.67;4.47;;;10.90;99.90;;;;;;4879378;29;20298;-78
2022/04/14 02:43:44;;;;;;;7.17;4.30;;;10.80;99.90;;;;;;4882032;29;20227;-81
2022/04/14 02:46:10;;;;;;;5.77;3.67;;;10.80;99.90;;;;;;4882015;29;20656;-80
2022/04/14 02:48:37;;;;;;;7.30;4.37;;;10.70;99.90;;;;;;4878405;29;20600;-79
2022/04/14 02:51:06;;;;;;;9.53;5.13;;;10.70;99.90;;;;;;4878430;29;20211;-77
2022/04/14 02:53:32;;;;;;;9.40;4.13;;;10.60;99.90;;;;;;4878718;29;20214;-81
2022/04/14 02:55:59;;;;;;;7.60;4.23;;;10.60;99.90;;;;;;4878859;29;20222;-78
2022/04/14 02:58:26;;;;;;;7.30;4.70;;;10.70;99.90;;;;;;4878772;29;20282;-80
2022/04/14 03:00:53;;;;;;;7.40;4.23;;;10.70;99.90;;;;;;4878378;29;20207;-75
2022/04/14 03:03:23;;;;;;;8.43;4.90;;;10.60;99.90;;;;;;4877945;29;20213;-80
2022/04/14 03:05:50;;;;;;;7.57;4.60;;;10.60;99.90;;;;;;4878726;29;20215;-80
2022/04/14 03:08:18;;;;;;;8.30;4.77;;;10.60;99.90;;;;;;4878502;29;20227;-81
2022/04/14 03:10:45;;;;;;;7.53;4.63;;;10.60;99.90;;;;;;4879208;29;20229;-75
2022/04/14 03:13:12;;;;;;;8.87;4.83;;;10.60;99.90;;;;;;4878373;29;20215;-80
2022/04/14 03:15:39;;;;;;;7.13;4.07;;;10.50;99.90;;;;;;4878741;29;20302;-77
2022/04/14 03:18:09;;;;;;;10.60;4.70;;;10.50;99.90;;;;;;4881263;29;20227;-81
2022/04/14 03:20:36;;;;;;;8.73;4.87;;;10.40;99.90;;;;;;4881779;29;20215;-81
2022/04/14 03:23:03;;;;;;;8.83;4.57;;;10.40;99.90;;;;;;4881171;29;20251;-75
2022/04/14 03:25:31;;;;;;;7.60;4.23;;;10.30;99.90;;;;;;4881290;29;20238;-72
2022/04/14 03:27:58;;;;;;;7.57;4.20;;;10.20;99.90;;;;;;4881479;29;20227;-81
2022/04/14 03:30:25;;;;;;;7.50;4.17;;;10.20;99.90;;;;;;4881382;29;20211;-81
2022/04/14 03:32:52;;;;;;;7.80;4.67;;;10.10;99.90;;;;;;4881894;29;20573;-79
2022/04/14 03:35:18;;;;;;;7.57;4.17;;;10.10;99.90;;;;;;4881979;29;20218;-77
2022/04/14 03:37:46;;;;;;;9.13;4.47;;;10.00;99.90;;;;;;4881812;29;20232;-71
2022/04/14 03:40:14;;;;;;;8.07;3.87;;;9.90;99.90;;;;;;4881814;29;20211;-75
2022/04/14 03:42:42;;;;;;;9.90;4.43;;;9.90;99.90;;;;;;4881692;29;20248;-77
2022/04/14 03:45:09;;;;;;;8.80;4.60;;;9.90;99.90;;;;;;4889675;29;20314;-78
2022/04/14 03:47:36;;;;;;;8.33;5.00;;;9.80;99.90;;;;;;4882698;29;20614;-70
2022/04/14 03:50:03;;;;;;;8.57;4.53;;;9.80;99.90;;;;;;4880925;29;20215;-81
2022/04/14 03:52:30;;;;;;;8.17;4.10;;;9.80;99.90;;;;;;4880994;29;20211;-76
2022/04/14 03:54:58;;;;;;;8.07;4.53;;;9.80;99.90;;;;;;4881411;29;20222;-76
2022/04/14 03:57:25;;;;;;;8.37;4.43;;;9.70;99.90;;;;;;4880850;29;20665;-79
2022/04/14 03:59:53;;;;;;;8.93;4.80;;;9.70;99.90;;;;;;4881086;29;20211;-81
2022/04/14 04:02:20;;;;;;;7.23;4.23;;;9.70;99.90;;;;;;4881257;29;20207;-75
2022/04/14 04:04:47;;;;;;;8.53;4.63;;;9.80;99.90;;;;;;4881012;29;20250;-81
2022/04/14 04:07:16;;;;;;;7.93;4.30;;;9.70;99.90;;;;;;4880873;29;20222;-71
2022/04/14 04:09:43;;;;;;;7.60;3.97;;;9.60;99.90;;;;;;4880745;29;20215;-76
2022/04/14 04:12:11;;;;;;;9.23;4.27;;;9.50;99.90;;;;;;4880419;29;20229;-76
2022/04/14 04:14:41;;;;;;;5.70;3.27;;;9.40;99.90;;;;;;4881160;29;20233;-70
2022/04/14 04:17:09;;;;;;;6.27;3.90;;;9.40;99.90;;;;;;4881307;29;20218;-71
2022/04/14 04:19:38;;;;;;;8.17;4.57;;;9.40;99.90;;;;;;4880584;29;20214;-70
2022/04/14 04:22:06;;;;;;;8.27;4.80;;;9.30;99.90;;;;;;4880638;29;20214;-71
2022/04/14 04:24:33;;;;;;;11.90;4.47;;;9.30;99.90;;;;;;4881699;29;20771;-70
2022/04/14 04:27:00;;;;;;;8.67;4.73;;;9.30;99.90;;;;;;4880946;29;20210;-70
2022/04/14 04:29:27;;;;;;;7.67;4.27;;;9.30;99.90;;;;;;4880461;29;20242;-70
2022/04/14 04:31:54;;;;;;;9.27;4.17;;;9.30;99.90;;;;;;4881254;29;20211;-71
2022/04/14 04:34:23;;;;;;;9.60;4.37;;;9.30;99.90;;;;;;4884850;29;20219;-79
2022/04/14 04:36:50;;;;;;;8.23;4.30;;;9.30;99.90;;;;;;4886198;29;20211;-78
2022/04/14 04:39:16;;;;;;;7.47;4.10;;;9.30;99.90;;;;;;4885835;29;20227;-76
2022/04/14 04:41:43;;;;;;;12.57;5.67;;;9.20;99.90;;;;;;4882564;29;20207;-78
2022/04/14 04:44:10;;;;;;;7.03;4.07;;;9.10;99.90;;;;;;4879797;29;20217;-79
2022/04/14 04:46:37;;;;;;;7.73;3.87;;;9.10;99.90;;;;;;4880010;29;20211;-77
2022/04/14 04:49:04;;;;;;;9.90;4.30;;;9.20;99.90;;;;;;4881328;29;20241;-80
2022/04/14 04:51:32;;;;;;;8.07;3.93;;;9.20;99.90;;;;;;4898885;29;20222;-80
2022/04/14 04:53:59;;;;;;;8.33;4.57;;;9.20;99.90;;;;;;4887991;29;20314;-75
2022/04/14 04:56:26;;;;;;;6.97;3.60;;;9.10;99.90;;;;;;4880449;29;20215;-78
2022/04/14 04:58:52;;;;;;;7.53;4.40;;;9.00;99.90;;;;;;4880412;29;20310;-80
2022/04/14 05:01:19;;;;;;;9.20;4.27;;;9.00;99.90;;;;;;4883258;29;20200;-78
2022/04/14 05:03:46;;;;;;;7.10;4.20;;;9.10;99.90;;;;;;4889091;29;20202;-79
2022/04/14 05:06:13;;;;;;;6.87;4.20;;;9.10;99.90;;;;;;4898863;29;20738;-80
2022/04/14 05:08:41;;;;;;;7.33;4.20;;;9.10;99.90;;;;;;4898446;29;20234;-70
2022/04/14 05:11:08;;;;;;;8.23;4.03;;;9.10;99.90;;;;;;4898404;29;20218;-74
2022/04/14 05:13:35;;;;;;;6.97;4.40;;;9.10;99.90;;;;;;4898807;29;20217;-80
2022/04/14 05:16:04;;;;;;;7.20;3.80;;;9.20;99.90;;;;;;4899015;29;20664;-80
2022/04/14 05:18:31;;;;;;;8.53;4.73;;;9.10;99.90;;;;;;4898108;29;20727;-80
2022/04/14 05:20:58;;;;;;;7.53;4.37;;;9.10;99.90;;;;;;4892359;29;20207;-70
2022/04/14 05:23:24;;;;;;;7.50;4.20;;;9.10;99.90;;;;;;4879284;29;20669;-79
2022/04/14 05:25:54;;;;;;;10.90;4.50;;;9.10;99.90;;;;;;4889198;29;20234;-79
2022/04/14 05:28:21;;;;;;;9.17;4.53;;;9.10;99.90;;;;;;4898242;29;20241;-69
2022/04/14 05:30:48;;;;;;;7.57;4.57;;;9.10;99.90;;;;;;4898561;29;20207;-76
2022/04/14 05:33:15;;;;;;;7.23;4.30;;;9.20;99.90;;;;;;4898123;29;20238;-70
2022/04/14 05:35:43;;;;;;;9.83;4.57;;;9.30;99.90;;;;;;4896926;29;20214;-79
2022/04/14 05:38:10;;;;;;;9.23;4.37;;;9.50;99.90;;;;;;4879204;29;20242;-71
2022/04/14 05:40:41;;;;;;;7.97;3.80;;;9.60;99.90;;;;;;4878783;29;20218;-77
2022/04/14 05:43:09;;;;;;;9.43;4.30;;;9.70;99.90;;;;;;4879636;29;20222;-80
2022/04/14 05:45:37;;;;;;;7.73;4.33;;;9.80;99.90;;;;;;4879627;29;20243;-80
2022/04/14 05:48:04;;;;;;;7.07;4.10;;;10.00;99.90;;;;;;4879227;29;20641;-80
2022/04/14 05:50:31;;;;;;;8.43;4.17;;;10.20;99.90;;;;;;4879884;29;20215;-80
2022/04/14 05:52:58;;;;;;;9.67;4.20;;;10.40;99.90;;;;;;4879473;29;20596;-80
2022/04/14 05:55:25;;;;;;;7.33;4.10;;;10.50;99.90;;;;;;4895720;29;20659;-76
2022/04/14 05:57:51;;;;;;;6.77;4.03;;;10.80;99.90;;;;;;4897483;29;20250;-81
2022/04/14 06:00:20;;;;;;;7.17;4.20;;;11.20;99.90;;;;;;4897661;29;20214;-72
2022/04/14 06:02:46;;;;;;;7.67;4.20;;;11.70;99.90;;;;;;4897545;29;20214;-72
2022/04/14 06:05:13;;;;;;;7.17;4.07;;;12.30;99.90;;;;;;4897357;29;20245;-79
2022/04/14 06:07:40;;;;;;;7.30;4.37;;;12.90;99.90;;;;;;4897553;29;20252;-81
2022/04/14 06:10:07;;;;;;;7.40;4.13;;;13.40;99.90;;;;;;4896712;29;20203;-82
2022/04/14 06:12:34;;;;;;;8.20;4.00;;;13.70;99.90;;;;;;4897143;29;20221;-81
2022/04/14 06:15:01;;;;;;;8.60;4.43;;;14.00;99.90;;;;;;4897321;29;20313;-80
2022/04/14 06:17:29;;;;;;;10.53;4.80;;;14.00;99.90;;;;;;4897504;29;20210;-81
2022/04/14 06:19:56;;;;;;;7.90;4.13;;;13.90;99.90;;;;;;4896314;29;20206;-70
2022/04/14 06:22:23;;;;;;;7.00;4.30;;;13.90;99.90;;;;;;4897356;29;20202;-76
2022/04/14 06:24:50;;;;;;;6.73;4.30;;;14.20;99.90;;;;;;4897348;29;20230;-77
2022/04/14 06:27:17;;;;;;;7.47;4.67;;;14.90;99.90;;;;;;4895740;29;20218;-81
2022/04/14 06:29:44;;;;;;;8.07;4.80;;;15.90;99.90;;;;;;4891889;29;20206;-81
2022/04/14 06:32:10;;;;;;;10.03;5.97;;;17.00;99.90;;;;;;4896678;29;20555;-80
2022/04/14 06:34:39;;;;;;;7.70;4.67;;;18.10;99.90;;;;;;4897322;29;20616;-81
2022/04/14 06:37:06;;;;;;;8.23;5.53;;;19.10;99.90;;;;;;4885409;29;20209;-77
2022/04/14 06:39:33;;;;;;;7.30;5.22;;;20.00;99.90;;;;;;4878476;29;20712;-80
2022/04/14 06:41:59;;;;;;;9.55;6.07;;;20.90;99.90;;;;;;4878204;29;20683;-80
2022/04/14 06:44:27;;;;;;;7.85;5.53;;;21.70;99.90;;;;;;4884928;29;20203;-80
2022/04/14 06:46:54;;;;;;;9.27;6.15;;;22.60;99.90;;;;;;4895631;29;20226;-79
2022/04/14 06:49:21;;;;;;;11.77;7.07;;;23.00;99.90;;;;;;4895898;29;20226;-70
2022/04/14 06:51:49;;;;;;;11.35;6.32;;;23.60;99.90;;;;;;4896778;29;20218;-74
2022/04/14 06:54:17;;;;;;;9.20;6.38;;;24.30;99.90;;;;;;4888572;29;20664;-70
2022/04/14 06:56:44;;;;;;;10.50;6.43;;;24.50;99.90;;;;;;4882010;29;20222;-71
2022/04/14 06:59:10;;;;;;;10.10;6.97;;;24.90;99.90;;;;;;4882088;29;20747;-71
2022/04/14 07:01:37;;;;;;;8.85;5.47;;;25.20;99.90;;;;;;4882820;29;20207;-77
2022/04/14 07:04:05;;;;;;;9.15;6.38;;;24.60;99.90;;;;;;4882604;29;20687;-74
2022/04/14 07:06:32;;;;;;;9.57;6.20;;;24.60;99.90;;;;;;4881940;29;20752;-73
2022/04/14 07:09:00;;;;;;;8.82;5.00;;;25.00;99.90;;;;;;4897885;29;20592;-74
2022/04/14 07:11:27;;;;;;;8.45;4.93;;;24.80;99.90;;;;;;4899171;29;20210;-72
2022/04/14 07:13:54;;;;;;;8.20;5.45;;;24.40;99.90;;;;;;4900695;29;20202;-77
2022/04/14 07:16:21;;;;;;;8.95;6.15;;;23.70;99.90;;;;;;4900422;29;20718;-77
2022/04/14 07:18:47;;;;;;;7.88;5.55;;;22.60;99.90;;;;;;4899736;29;20588;-78
2022/04/14 07:21:14;;;;;;;8.43;5.70;;;21.80;99.90;;;;;;4897925;29;20203;-71
2022/04/14 07:23:41;;;;;;;11.05;6.30;;;21.40;99.90;;;;;;4900264;29;20206;-71
2022/04/14 07:26:09;;;;;;;8.95;5.45;;;21.00;99.90;;;;;;4900403;29;20198;-79
2022/04/14 07:28:36;;;;;;;7.97;5.70;;;20.60;99.90;;;;;;4895286;29;20225;-70
2022/04/14 07:31:03;;;;;;;8.93;5.32;;;20.50;99.90;;;;;;4890366;29;20559;-73
2022/04/14 07:33:30;;;;;;;7.88;4.85;;;20.60;99.90;;;;;;4899575;29;20571;-69
2022/04/14 07:35:57;;;;;;;11.10;5.35;;;20.10;99.90;;;;;;4898360;29;20226;-79
2022/04/14 07:38:23;;;;;;;9.93;5.15;;;19.60;99.90;;;;;;4897325;29;20616;-72
2022/04/14 07:40:50;;;;;;;7.65;4.75;;;19.20;99.90;;;;;;4900107;29;20209;-77
2022/04/14 07:43:19;;;;;;;7.57;4.68;;;18.40;99.90;;;;;;4899631;29;20575;-75
2022/04/14 07:45:47;;;;;;;8.18;5.18;;;17.50;99.90;;;;;;4900108;29;20245;-71
2022/04/14 07:48:14;;;;;;;7.32;4.65;;;17.10;99.90;;;;;;4899537;29;20238;-74
2022/04/14 07:50:41;;;;;;;5.15;3.72;;;17.40;99.90;;;;;;4899640;29;20303;-77
2022/04/14 07:53:08;;;;;;;11.00;6.00;;;17.20;99.90;;;;;;4899535;29;20211;-75
2022/04/14 07:55:36;;;;;;;8.57;5.07;;;17.20;99.90;;;;;;4889356;29;20329;-78
2022/04/14 07:58:07;;;;;;;9.27;5.60;;;17.40;99.90;;;;;;4881457;29;20236;-79
2022/04/14 08:00:36;;;;;;;8.95;5.10;;;17.90;99.90;;;;;;4881500;29;20213;-78
2022/04/14 08:03:04;;;;;;;7.28;4.40;;;18.60;99.90;;;;;;4880051;29;20214;-76
2022/04/14 08:05:33;;;;;;;9.70;5.05;;;19.40;99.90;;;;;;4880582;29;20635;-79
2022/04/14 08:08:01;;;;;;;7.65;4.60;;;19.50;99.90;;;;;;4880452;29;20604;-76
2022/04/14 08:10:27;;;;;;;7.65;4.55;;;19.00;99.90;;;;;;4881060;29;20218;-70
2022/04/14 08:12:54;;;;;;;8.20;4.88;;;18.80;99.90;;;;;;4880795;29;20276;-74
2022/04/14 08:15:21;;;;;;;11.15;5.28;;;19.10;99.90;;;;;;4880642;29;20238;-74
2022/04/14 08:17:50;;;;;;;9.85;5.40;;;19.50;99.90;;;;;;4885563;29;20219;-74
2022/04/14 08:20:17;;;;;;;8.13;5.00;;;20.50;99.90;;;;;;4889864;29;20206;-73
2022/04/14 08:22:49;;;;;;;8.75;4.70;;;21.10;99.90;;;;;;4898601;29;20203;-69
2022/04/14 08:25:17;;;;;;;6.93;4.60;;;21.70;99.90;;;;;;4899326;29;20203;-78
2022/04/14 08:27:44;;;;;;;7.35;4.85;;;22.10;99.90;;;;;;4883750;29;20230;-71
2022/04/14 08:30:12;;;;;;;7.35;4.95;;;21.90;99.90;;;;;;4898544;29;20203;-77
2022/04/14 08:32:39;;;;;;;6.53;4.15;;;20.90;99.90;;;;;;4899040;29;20210;-79
2022/04/14 08:35:08;;;;;;;9.73;4.10;;;21.10;99.90;;;;;;4898716;29;20210;-73
2022/04/14 08:37:35;;;;;;;8.82;4.50;;;21.20;99.90;;;;;;4891911;29;20234;-79
2022/04/14 08:40:05;;;;;;;7.55;3.90;;;21.20;99.90;;;;;;4883241;29;20634;-80
2022/04/14 08:42:38;;;;;;;7.18;3.85;;;21.40;99.90;;;;;;4879673;29;20270;-81
2022/04/14 08:45:07;;;;;;;7.38;3.60;;;21.70;99.90;;;;;;4891729;29;20207;-76
2022/04/14 08:47:36;;;;;;;9.82;3.65;;;21.50;99.90;;;;;;4898059;29;20715;-71
2022/04/14 08:50:04;;;;;;;4.47;3.05;;;21.80;99.90;;;;;;4898683;29;20218;-70
2022/04/14 08:52:34;;;;;;;5.13;3.13;;;21.60;99.90;;;;;;4898679;29;20207;-71
2022/04/14 08:55:04;;;;;;;6.32;2.83;;;21.90;99.90;;;;;;4898738;29;20214;-80
2022/04/14 08:57:31;;;;;;;7.15;2.70;;;21.50;99.90;;;;;;4891235;29;20246;-80
2022/04/14 08:59:59;;;;;;;4.72;2.53;;;21.40;99.90;;;;;;4889422;29;20679;-80
2022/04/14 09:02:27;;;;;;;3.90;2.80;;;21.00;99.90;;;;;;4894952;29;20565;-79
2022/04/14 09:04:55;;;;;;;4.93;2.20;;;20.80;99.90;;;;;;4897254;29;20198;-70
2022/04/14 09:07:22;;;;;;;3.63;2.03;;;21.40;99.90;;;;;;4898142;29;20214;-70
2022/04/14 09:09:50;;;;;;;5.63;1.90;;;21.50;99.90;;;;;;4897740;29;20210;-77
2022/04/14 09:12:18;;;;;;;4.47;2.10;;;21.70;99.90;;;;;;4897923;29;20218;-72
2022/04/14 09:14:46;;;;;;;2.65;1.80;;;21.90;99.90;;;;;;4896583;29;20199;-70
2022/04/14 09:17:13;;;;;;;2.80;1.55;;;21.60;99.90;;;;;;4897756;29;20238;-71
2022/04/14 09:19:41;;;;;;;2.85;1.67;;;21.90;99.90;;;;;;4896921;29;20203;-72
2022/04/14 09:22:10;;;;;;;1.85;1.10;;;22.00;99.90;;;;;;4897140;29;20213;-79
2022/04/14 09:24:47;;;;;;;2.47;1.02;;;21.90;99.90;;;;;;4896998;29;20202;-71
2022/04/14 09:27:35;;;;;;;2.05;1.00;;;21.90;99.90;;;;;;4895521;29;20209;-73
2022/04/14 09:30:05;;;;;;;1.60;0.77;;;22.10;99.90;;;;;;4894131;29;20260;-69
2022/04/14 09:32:34;;;;;;;1.77;0.82;;;22.20;99.90;;;;;;4883723;29;20218;-69
2022/04/14 09:35:03;;;;;;;1.83;0.90;;;21.80;99.90;;;;;;4879122;29;20216;-78
2022/04/14 09:37:31;;;;;;;3.78;1.15;;;21.90;99.90;;;;;;4878598;29;20235;-72
2022/04/14 09:40:00;;;;;;;7.97;1.25;;;21.70;99.90;;;;;;4878634;29;20234;-75
2022/04/14 09:42:29;;;;;;;0.70;0.50;;;21.50;99.90;;;;;;4878420;29;20685;-69
2022/04/14 09:45:18;;;;;;;3.47;2.25;;;21.40;99.90;;;;;;4887690;29;20271;-78
2022/04/14 09:47:45;;;;;;;3.83;0.85;;;21.20;99.90;;;;;;4896991;29;20317;-72
2022/04/14 09:50:27;;;;;;;1.17;0.70;;;21.20;99.90;;;;;;4896942;29;20217;-70
2022/04/14 09:53:15;;;;;;;0.80;0.50;;;20.80;99.90;;;;;;4897597;29;20572;-70
2022/04/14 09:55:43;;;;;;;1.80;0.50;;;20.30;99.90;;;;;;4893487;29;20754;-76
2022/04/14 09:58:13;;;;;;;0.32;0.30;;;20.00;99.60;;;;;;4878171;29;20226;-71
2022/04/14 10:00:43;;;;;;;0.93;0.50;;;19.80;99.90;;;;;;4879033;29;20222;-70
2022/04/14 10:03:12;;;;;;;0.60;0.40;;;19.80;99.90;;;;;;4878627;29;20309;-70
2022/04/14 10:05:39;;;;;;;0.93;0.40;;;19.80;99.40;;;;;;4878673;29;20211;-71
2022/04/14 10:08:08;;;;;;;0.50;0.50;;;20.00;99.90;;;;;;4878359;29;20238;-71
2022/04/14 10:10:36;;;;;;;0.45;0.40;;;20.00;99.90;;;;;;4878282;29;20271;-69
2022/04/14 10:13:05;;;;;;;0.60;0.40;;;20.10;99.90;;;;;;4878247;29;20611;-70
2022/04/14 10:15:32;;;;;;;0.65;0.30;;;20.10;99.90;;;;;;4891374;29;20214;-70
2022/04/14 10:18:04;;;;;;;0.40;0.28;;;20.10;99.90;;;;;;4896346;29;20241;-73
2022/04/14 10:20:31;;;;;;;0.80;0.30;;;20.20;99.30;;;;;;4896960;29;20694;-70
2022/04/14 10:23:00;;;;;;;0.80;0.40;;;20.10;99.90;;;;;;4896721;29;20206;-72
2022/04/14 10:25:28;;;;;;;0.75;0.20;;;20.00;99.90;;;;;;4897593;29;20285;-70
2022/04/14 10:27:57;;;;;;;0.52;0.40;;;20.10;99.90;;;;;;4896519;29;20245;-73
2022/04/14 10:30:24;;;;;;;0.43;0.30;;;19.90;99.90;;;;;;4894428;29;20572;-73
2022/04/14 10:32:53;;;;;;;0.93;0.30;;;19.80;99.90;;;;;;4878330;29;20211;-71
2022/04/14 10:35:21;;;;;;;1.30;0.70;;;19.70;99.90;;;;;;4889019;29;20205;-70
2022/04/14 10:37:53;;;;;;;1.20;0.40;;;19.60;99.90;;;;;;4896884;29;20234;-71
2022/04/14 10:40:21;;;;;;;1.63;0.50;;;19.80;99.90;;;;;;4897264;29;20202;-70
2022/04/14 10:42:52;;;;;;;1.05;0.73;;;19.90;99.90;;;;;;4896382;29;20222;-73
2022/04/14 10:45:22;;;;;;;1.20;0.73;;;20.00;99.90;;;;;;4895102;29;20660;-70
2022/04/14 10:47:59;;;;;;;1.13;0.82;;;20.20;99.90;;;;;;4889475;29;20719;-70
2022/04/14 10:50:30;;;;;;;1.35;0.80;;;20.00;99.90;;;;;;4894986;29;20216;-70
2022/04/14 10:53:04;;;;;;;0.80;0.60;;;20.20;99.90;;;;;;4895427;29;20203;-77
2022/04/14 10:55:39;;;;;;;0.93;0.70;;;20.10;99.90;;;;;;4891937;29;20202;-71
2022/04/14 10:58:06;;;;;;;3.35;0.90;;;20.10;99.70;;;;;;4890231;29;20240;-69
2022/04/14 11:00:37;;;;;;;1.58;0.98;;;20.30;99.90;;;;;;4895219;29;20232;-70
2022/04/14 11:03:11;;;;;;;1.38;0.90;;;20.50;99.90;;;;;;4893458;29;20202;-71
2022/04/14 11:05:44;;;;;;;4.13;1.25;;;20.60;99.70;;;;;;4897005;29;20305;-77
2022/04/14 11:08:24;;;;;;;0.93;0.60;;;20.70;98.80;;;;;;4897266;29;20700;-73
2022/04/14 11:11:10;;;;;;;1.77;0.85;;;20.60;99.80;;;;;;4897327;29;20667;-77
2022/04/14 11:14:09;;;;;;;1.10;0.90;;;20.60;99.90;;;;;;4896598;29;20215;-75
2022/04/14 11:16:39;;;;;;;1.60;0.82;;;20.70;99.50;;;;;;4893336;29;20297;-78
2022/04/14 11:19:26;;;;;;;2.55;1.10;;;20.90;98.40;;;;;;4896584;29;20234;-79
2022/04/14 11:22:06;;;;;;;1.73;1.30;;;21.20;99.30;;;;;;4897569;29;20214;-78
2022/04/14 11:24:40;;;;;;;2.22;1.20;;;21.40;99.50;;;;;;4896701;29;20232;-79
2022/04/14 11:27:12;;;;;;;3.42;1.27;;;21.40;99.90;;;;;;4896609;29;20258;-75
2022/04/14 11:29:39;;;;;;;1.65;1.20;;;21.50;99.40;;;;;;4896471;29;20211;-79
2022/04/14 11:32:07;;;;;;;2.38;1.02;;;21.70;98.90;;;;;;4893857;29;20202;-76
2022/04/14 11:34:35;;;;;;;1.80;1.13;;;21.80;99.40;;;;;;4895429;29;20297;-71
2022/04/14 11:37:03;;;;;;;2.95;1.30;;;21.60;99.20;;;;;;4896202;29;20240;-72
2022/04/14 11:39:32;;;;;;;4.40;1.30;;;21.20;98.90;;;;;;4898876;29;20237;-77
2022/04/14 11:42:08;;;;;;;5.57;1.23;;;20.90;98.80;;;;;;4900416;29;20210;-78
2022/04/14 11:44:35;;;;;;;2.38;1.08;;;20.80;99.30;;;;;;4899044;29;20202;-75
2022/04/14 11:47:04;;;;;;;1.85;1.00;;;20.70;98.90;;;;;;4896382;29;20643;-70
2022/04/14 11:49:32;;;;;;;2.28;1.35;;;20.80;99.60;;;;;;4898985;29;20226;-71
2022/04/14 11:52:00;;;;;;;2.70;1.20;;;20.90;99.20;;;;;;4898353;29;20209;-72
2022/04/14 11:54:37;;;;;;;2.70;1.10;;;21.20;98.60;;;;;;4899079;29;20210;-71
2022/04/14 11:57:09;;;;;;;2.10;1.75;;;21.40;98.40;;;;;;4894141;29;20230;-72
2022/04/14 11:59:38;;;;;;;2.67;1.20;;;21.60;97.00;;;;;;4884504;29;20235;-74
2022/04/14 12:02:06;;;;;;;2.03;1.08;;;21.70;97.30;;;;;;4891464;29;20207;-71
2022/04/14 12:04:37;;;;;;;1.88;1.30;;;21.70;99.10;;;;;;4892154;29;20203;-72
2022/04/14 12:07:05;;;;;;;3.92;1.52;;;21.70;99.10;;;;;;4887630;29;20683;-71
2022/04/14 12:09:32;;;;;;;4.03;1.52;;;21.40;98.70;;;;;;4888783;29;20829;-71
2022/04/14 12:12:09;;;;;;;3.58;1.42;;;21.60;99.20;;;;;;4880745;29;20234;-73
2022/04/14 12:14:36;;;;;;;3.15;1.70;;;21.60;98.80;;;;;;4886402;29;20210;-72
2022/04/14 12:17:03;;;;;;;3.67;1.58;;;21.70;97.70;;;;;;4899478;29;20607;-72
2022/04/14 12:19:41;;;;;;;3.03;1.48;;;22.10;96.90;;;;;;4899453;29;20605;-77
2022/04/14 12:22:08;;;;;;;2.17;1.35;;;22.20;98.10;;;;;;4898666;29;20232;-78
2022/04/14 12:24:34;;;;;;;2.85;1.90;;;22.00;98.50;;;;;;4898498;29;20199;-75
2022/04/14 12:27:03;;;;;;;4.05;1.98;;;22.10;99.00;;;;;;4899187;29;20547;-78
2022/04/14 12:29:30;;;;;;;3.47;1.92;;;22.00;98.90;;;;;;4899235;29;20561;-76
2022/04/14 12:31:58;;;;;;;3.58;2.10;;;21.60;99.60;;;;;;4898708;29;20549;-70
2022/04/14 12:34:25;;;;;;;6.65;1.83;;;21.40;99.80;;;;;;4898642;29;20289;-71
2022/04/14 12:37:06;;;;;;;3.63;2.00;;;21.20;99.90;;;;;;4899175;29;20230;-76
2022/04/14 12:39:33;;;;;;;3.13;1.80;;;21.00;99.90;;;;;;4899374;29;20236;-74
2022/04/14 12:42:01;;;;;;;3.55;1.90;;;21.00;99.90;;;;;;4899501;29;20214;-74
2022/04/14 12:44:29;;;;;;;3.13;1.58;;;21.00;99.90;;;;;;4899499;29;20210;-75
2022/04/14 12:46:56;;;;;;;3.00;1.88;;;21.00;99.70;;;;;;4899759;29;20214;-79
2022/04/14 12:49:33;;;;;;;5.40;1.70;;;21.10;99.50;;;;;;4898528;29;20718;-75
2022/04/14 12:52:03;;;;;;;6.20;1.73;;;21.00;99.20;;;;;;4898987;29;20206;-78
2022/04/14 12:54:30;;;;;;;3.20;1.20;;;21.00;98.20;;;;;;4897975;29;20612;-77